Scottsboro, AL (35769)

7:15 AM CST on February 14, 2016 (GMT -0600)
US 72 X AL 35 | | Change Station
CLOSE
Current Station
Personal Weather Station
Location: Scottsboro, AL
Elevation: 665 ft
Nearby Weather Stations

Elev 665 ft 34.66 °N, 86.02 °W | Updated 9 seconds ago

Partly Cloudy
Partly Cloudy
26.6 °F
Feels Like 27 °F
N
0.0
Wind Variable Wind from North
Gusts 0.0 mph

Today
High -- | Low -- °F
--% Chance of Precip.
Yesterday
High -- | Low -- °F
Precip. -- in
Pressure 30.37 in
Visibility 10.0 miles
Clouds Clear
Windchill 27 °F
Dew Point -7 °F
Humidity 22%
Rainfall 0.00 in
Snow Depth Not available.
6:31 AM 5:25 PM
Waxing Crescent, 41% visible
METAR K4A6 141255Z AUTO 00000KT 10SM CLR M04/M10 A3037 RMK AO2
Pressure 30.37 in
Visibility 10.0 miles
Clouds Clear
Windchill 27 °F
Dew Point -7 °F
Humidity 22%
Rainfall 0.00 in
Snow Depth Not available.
6:31 AM 5:25 PM
Waxing Crescent, 41% visible
METAR K4A6 141255Z AUTO 00000KT 10SM CLR M04/M10 A3037 RMK AO2

10-Day Weather Forecast

Almanac

Astronomy

Feb. 14, 2016 Rise Set
Actual Time
Civil Twilight
Nautical Twilight
Astronomical Twilight
Moon
Length of Visible Light
Length of Day
Tomorrow will be .
, % of the Moon is Illuminated

Today's Extremes

State Highs State Lows

Community

WunderPhotos

Upload Photos

1,892,783 photos uploaded!

WunderBlog® & News

Nearby

Air Quality

  Air Quality AQ Index Pollutant
Not available.

Snow Depth

Station Depth Elevation

Earthquake Activity

City Distance Mag. Time & Date
Minimum magnitude displayed is 2.5.

Coastal Water Temperatures

Place Temperature

Stations

Nearby Weather Stations

Station Location Temp. Windchill Dew Point Humidity Wind Precip. Elev Updated Type
                   

Watches & Warnings

There are currently no watches in effect.